Linda Reed — WDE8222 — position and weather

sailwx.info

Track history (hours):
 
Tides and Currents Weather Stations Pressure Air Temp Water Temp Dewpoint Dewpoint Depression Visibility Wind Speed Wind Dir Waves Ship Positions

Linda Reed

Owner: Crounse Corporation, Maysville, KY. More information available from US FCC via Universal Licensing System and Coast Guard Vessel Documentation Center.

Last reported at 2015-Dec-02 06:26 UTC. Time now 2016-Feb-13 23:48 UTC.
Position N 38°39' W 083°21'.
Warning: this ship's position is months out of date.

Length 45 m.

Type: Tow > 200 m length. MMSI: 367402990.

Date/timePositionNaut miles runAvg speedWind from/ knotsBaromVisibWave heightAir tempDewpointWater temp
2015-Dec-02 06:26N 38°39' W 083°21'24 0.5
2015-Nov-30 03:33N 38°45' W 083°51'4 3.6
2015-Nov-30 02:33N 38°46' W 083°56'4 3.4
2015-Nov-30 01:25N 38°47' W 084°01'3 3.7
2015-Nov-30 00:33N 38°46' W 084°05'4 3.8
2015-Nov-29 23:33N 38°48' W 084°09'2 1.5
2015-Nov-29 22:32N 38°48' W 084°11'3 2.8
2015-Nov-29 21:33N 38°50' W 084°14'3 3.3
2015-Nov-29 20:33N 38°53' W 084°14'3 3.1
2015-Nov-29 19:33N 38°56' W 084°16'3 3.2
2015-Nov-29 18:34N 38°59' W 084°18'3 3.2
2015-Nov-29 17:33N 39°01' W 084°20'3 3.2
2015-Nov-29 16:33N 39°03' W 084°23'3 2.9
2015-Nov-29 15:33N 39°05' W 084°26'3 3.0
2015-Nov-29 14:32N 39°07' W 084°28'3 3.1
2015-Nov-29 13:28N 39°06' W 084°32'1 0.9
2015-Nov-29 12:33N 39°06' W 084°33'3 3.3
2015-Nov-29 11:33N 39°04' W 084°36'4 3.6
2015-Nov-29 10:33N 39°06' W 084°41'4 3.8
2015-Nov-29 09:33N 39°09' W 084°44'3 3.4
2015-Nov-29 08:33N 39°07' W 084°48'5 3.8
2015-Nov-29 07:07N 39°04' W 084°53'2 3.5
2015-Nov-29 06:32N 39°02' W 084°52'5 3.5
2015-Nov-29 05:08N 38°57' W 084°51'  
Track history (hours):
 
Tides and Currents Weather Stations Pressure Air Temp Water Temp Dewpoint Dewpoint Depression Visibility Wind Speed Wind Dir Waves Ship Positions

Linda Reed

Owner: Crounse Corporation, Maysville, KY. More information available from US FCC via Universal Licensing System and Coast Guard Vessel Documentation Center.

Last reported at 2015-Dec-02 06:26 UTC. Time now 2016-Feb-13 23:48 UTC.
Position N 38°39' W 083°21'.
Warning: this ship's position is months out of date.

Length 45 m.

Type: Tow > 200 m length. MMSI: 367402990.

Date/timePositionNaut miles runAvg speedWind from/ knotsBaromVisibWave heightAir tempDewpointWater temp
2015-Dec-02 06:26N 38°39' W 083°21'24 0.5
2015-Nov-30 03:33N 38°45' W 083°51'4 3.6
2015-Nov-30 02:33N 38°46' W 083°56'4 3.4
2015-Nov-30 01:25N 38°47' W 084°01'3 3.7
2015-Nov-30 00:33N 38°46' W 084°05'4 3.8
2015-Nov-29 23:33N 38°48' W 084°09'2 1.5
2015-Nov-29 22:32N 38°48' W 084°11'3 2.8
2015-Nov-29 21:33N 38°50' W 084°14'3 3.3
2015-Nov-29 20:33N 38°53' W 084°14'3 3.1
2015-Nov-29 19:33N 38°56' W 084°16'3 3.2
2015-Nov-29 18:34N 38°59' W 084°18'3 3.2
2015-Nov-29 17:33N 39°01' W 084°20'3 3.2
2015-Nov-29 16:33N 39°03' W 084°23'3 2.9
2015-Nov-29 15:33N 39°05' W 084°26'3 3.0
2015-Nov-29 14:32N 39°07' W 084°28'3 3.1
2015-Nov-29 13:28N 39°06' W 084°32'1 0.9
2015-Nov-29 12:33N 39°06' W 084°33'3 3.3
2015-Nov-29 11:33N 39°04' W 084°36'4 3.6
2015-Nov-29 10:33N 39°06' W 084°41'4 3.8
2015-Nov-29 09:33N 39°09' W 084°44'3 3.4
2015-Nov-29 08:33N 39°07' W 084°48'5 3.8
2015-Nov-29 07:07N 39°04' W 084°53'2 3.5
2015-Nov-29 06:32N 39°02' W 084°52'5 3.5
2015-Nov-29 05:08N 38°57' W 084°51'  

Dump ship's entire track history